Burlington, New Jersey
Current Conditions -  °F | °C
As of 4:54 PM on Thursday 18 Dec 2014 (Local Time) from KPNE Reporting Station
Few Clouds Few Clouds  
Wind Chill: 33°   Ceiling: Unl
Heat Index: 38°   Visibility: 10mi
Dew Point: 23°   Wind: 7mph
Humidity: 55%   Direction: 300°WNW
Pressure: 30.03"   Gusts: NA
Location:  40.08°N, 74.86°W
Report Text: KPNE 182154Z AUTO 30006KT 10SM FEW037 03/M05 A3003 RMK AO2 SLP169 T00331050 TSNO $
Loading
Personal Weather Stations






























Interactive Weather Map New forecast layout! Learn more

10-Day Weather Forecast

Advertisements
Track Severe Weather on mobile